Time;durP1;ratioP1;P1;durP2;ratioP2;P2;SDS_P1;SDS_P2;PMS_P1;PMS_P2;Temp;Humidity;BMP_temperature;BMP_pressure;BME280_temperature;BME280_humidity;BME280_pressure;Samples;Min_cycle;Max_cycle;Signal;HPM_P1;HPM_P2
2023/05/29 00:00:33;;;;;;;1.95;1.85;;;;;;;9.70;64.14;100981.19;5125673;28;20475;-60
2023/05/29 00:02:58;;;;;;;0.40;0.40;;;;;;;9.68;64.26;100988.94;5125586;28;20173;-59
2023/05/29 00:05:23;;;;;;;0.50;0.50;;;;;;;9.67;64.10;100992.41;5125618;28;20069;-58
2023/05/29 00:07:50;;;;;;;0.40;0.40;;;;;;;9.59;64.12;100987.19;5125365;28;20501;-60
2023/05/29 00:10:16;;;;;;;0.32;0.32;;;;;;;9.58;63.93;100988.06;5125229;28;20043;-61
2023/05/29 00:12:41;;;;;;;0.40;0.40;;;;;;;9.53;63.89;100989.75;5124968;28;20028;-60
2023/05/29 00:15:09;;;;;;;0.40;0.40;;;;;;;9.51;63.96;100992.34;5125241;28;20062;-59
2023/05/29 00:17:35;;;;;;;0.30;0.30;;;;;;;9.46;64.84;100987.97;5125212;28;20411;-57
2023/05/29 00:20:03;;;;;;;0.30;0.30;;;;;;;9.47;64.61;100992.31;5124822;28;20467;-60
2023/05/29 00:22:28;;;;;;;0.40;0.40;;;;;;;9.41;64.77;100980.16;5125230;28;20059;-60
2023/05/29 00:24:54;;;;;;;0.40;0.40;;;;;;;9.38;65.11;100987.94;5125011;28;20112;-60
2023/05/29 00:27:19;;;;;;;0.40;0.40;;;;;;;9.41;65.60;100990.53;5124964;28;20027;-60
2023/05/29 00:29:46;;;;;;;0.40;0.40;;;;;;;9.39;65.21;100990.53;5125009;28;20055;-59
2023/05/29 00:32:11;;;;;;;0.40;0.40;;;;;;;9.39;64.82;101003.50;5106838;28;20026;-60
2023/05/29 00:34:37;;;;;;;0.40;0.40;;;;;;;9.34;65.27;101002.63;5125035;28;20379;-59
2023/05/29 00:37:02;;;;;;;0.40;0.40;;;;;;;9.29;65.36;101000.00;5124657;28;20028;-59
2023/05/29 00:39:28;;;;;;;0.30;0.30;;;;;;;9.26;65.34;101001.69;5124494;28;20019;-59
2023/05/29 00:41:53;;;;;;;0.40;0.40;;;;;;;9.22;65.01;101002.53;5124852;28;20027;-61
2023/05/29 00:44:19;;;;;;;0.40;0.40;;;;;;;9.15;64.69;100999.88;5124526;28;20049;-60
2023/05/29 00:46:46;;;;;;;0.40;0.40;;;;;;;9.13;64.32;101009.38;5124547;28;20026;-59
2023/05/29 00:49:13;;;;;;;0.40;0.40;;;;;;;9.02;64.39;101006.72;5124548;28;20589;-61
2023/05/29 00:51:40;;;;;;;0.40;0.40;;;;;;;9.00;64.55;101011.00;5124864;28;20035;-60
2023/05/29 00:54:11;;;;;;;0.40;0.40;;;;;;;8.93;64.53;101016.97;5124743;28;20057;-59
2023/05/29 00:56:39;;;;;;;0.40;0.40;;;;;;;8.90;64.26;101012.66;5124792;28;20568;-59
2023/05/29 00:59:05;;;;;;;0.40;0.40;;;;;;;8.85;64.11;101016.06;5124448;28;20020;-60
2023/05/29 01:01:32;;;;;;;0.40;0.40;;;;;;;8.78;63.91;101016.03;5124675;28;20023;-58
2023/05/29 01:04:00;;;;;;;0.40;0.40;;;;;;;8.70;64.09;101009.03;5124567;28;20020;-59
2023/05/29 01:06:26;;;;;;;0.40;0.40;;;;;;;8.66;64.25;101011.59;5124496;28;20023;-60
2023/05/29 01:08:51;;;;;;;0.40;0.40;;;;;;;8.63;64.06;101015.84;5124535;28;20023;-60
2023/05/29 01:11:56;;;;;;;0.40;0.40;;;;;;;8.56;64.38;101025.31;5124345;28;20015;-59
2023/05/29 01:14:31;;;;;;;0.40;0.40;;;;;;;8.54;64.28;101026.97;5120337;28;20035;-60
2023/05/29 01:17:11;;;;;;;0.40;0.40;;;;;;;8.53;64.16;101027.81;5124012;28;20024;-59
2023/05/29 01:20:08;;;;;;;0.40;0.40;;;;;;;8.50;63.94;101020.88;5124191;28;20135;-60
2023/05/29 01:22:51;;;;;;;0.40;0.40;;;;;;;8.48;63.90;101032.09;5124271;28;20540;-59
2023/05/29 01:25:29;;;;;;;0.52;0.52;;;;;;;8.43;63.95;101025.13;5109075;28;20096;-59
2023/05/29 01:27:55;;;;;;;0.40;0.40;;;;;;;8.39;64.16;101028.53;5128612;28;20039;-59
2023/05/29 01:30:24;;;;;;;0.40;0.40;;;;;;;8.40;64.03;101035.44;5128645;28;20024;-59
2023/05/29 01:32:50;;;;;;;0.40;0.40;;;;;;;8.43;63.80;101027.72;5127921;28;20023;-60
2023/05/29 01:35:15;;;;;;;0.40;0.40;;;;;;;8.44;63.69;101028.59;5128554;28;20015;-60
2023/05/29 01:37:40;;;;;;;0.40;0.40;;;;;;;8.41;63.45;101026.84;5128187;28;20080;-58
2023/05/29 01:40:07;;;;;;;0.40;0.40;;;;;;;8.40;63.47;101030.25;5128304;28;20095;-60
2023/05/29 01:42:32;;;;;;;0.40;0.40;;;;;;;8.39;63.36;101038.88;5128238;28;20028;-60
2023/05/29 01:44:59;;;;;;;0.40;0.40;;;;;;;8.39;63.48;101038.00;5128088;28;20035;-59
2023/05/29 01:47:25;;;;;;;0.40;0.40;;;;;;;8.38;63.39;101032.00;5128197;28;20047;-60
2023/05/29 01:49:51;;;;;;;0.50;0.50;;;;;;;8.39;63.22;101032.84;5128332;28;20046;-59
2023/05/29 01:52:17;;;;;;;0.40;0.40;;;;;;;8.36;63.26;101032.81;5128186;28;20073;-59
2023/05/29 01:54:43;;;;;;;0.40;0.40;;;;;;;8.38;63.08;101033.69;5127947;28;20387;-59
2023/05/29 01:57:10;;;;;;;0.40;0.40;;;;;;;8.34;62.83;101030.19;5128109;28;20045;-58
2023/05/29 01:59:37;;;;;;;2.15;1.95;;;;;;;8.37;62.67;101035.41;5128013;28;20019;-60
2023/05/29 02:02:07;;;;;;;0.35;0.35;;;;;;;8.45;62.62;101039.81;5127678;28;20023;-59
2023/05/29 02:04:32;;;;;;;0.40;0.40;;;;;;;8.43;62.51;101042.38;5127566;28;20023;-59
2023/05/29 02:06:57;;;;;;;0.40;0.40;;;;;;;8.40;62.42;101032.84;5127901;28;20256;-60
2023/05/29 02:09:23;;;;;;;0.40;0.40;;;;;;;8.40;62.38;101035.44;5127375;28;20487;-59
2023/05/29 02:11:48;;;;;;;0.40;0.40;;;;;;;8.38;62.19;101032.00;5127879;28;20036;-59
2023/05/29 02:14:14;;;;;;;0.40;0.40;;;;;;;8.39;62.13;101038.00;5127592;28;20061;-60
2023/05/29 02:16:40;;;;;;;0.50;0.50;;;;;;;8.37;61.97;101043.16;5127422;28;20084;-60
2023/05/29 02:19:06;;;;;;;0.50;0.50;;;;;;;8.36;62.08;101045.75;5127399;28;20071;-59
2023/05/29 02:21:32;;;;;;;0.40;0.40;;;;;;;8.34;61.95;101043.13;5127526;28;20379;-59
2023/05/29 02:23:57;;;;;;;0.40;0.40;;;;;;;8.27;61.63;101031.00;5127598;28;20279;-59
2023/05/29 02:26:22;;;;;;;0.40;0.40;;;;;;;8.28;61.63;101048.25;5127151;28;20043;-59
2023/05/29 02:28:48;;;;;;;0.40;0.40;;;;;;;8.21;61.63;101043.84;5127347;28;20026;-60
2023/05/29 02:31:13;;;;;;;0.40;0.40;;;;;;;8.13;61.47;101043.78;5127570;28;20061;-58
2023/05/29 02:33:39;;;;;;;0.40;0.40;;;;;;;8.15;61.58;101050.69;5127561;28;20015;-59
2023/05/29 02:36:04;;;;;;;0.68;0.68;;;;;;;8.11;61.59;101048.94;5126716;28;20483;-59
2023/05/29 02:38:30;;;;;;;0.40;0.40;;;;;;;8.08;61.65;101048.88;5127372;28;20455;-60
2023/05/29 02:40:55;;;;;;;0.40;0.40;;;;;;;8.05;61.62;101049.69;5127060;28;20020;-60
2023/05/29 02:43:21;;;;;;;0.50;0.50;;;;;;;8.06;61.62;101050.59;5127201;28;20077;-59
2023/05/29 02:45:47;;;;;;;0.40;0.40;;;;;;;8.04;61.51;101050.56;5127263;28;20012;-60
2023/05/29 02:48:12;;;;;;;0.40;0.40;;;;;;;8.06;61.38;101055.75;5127118;28;20639;-59
2023/05/29 02:50:37;;;;;;;0.50;0.50;;;;;;;8.05;61.38;101059.19;5126890;28;20083;-59
2023/05/29 02:53:03;;;;;;;0.40;0.40;;;;;;;8.04;61.53;101060.91;5126763;28;20054;-59
2023/05/29 02:55:28;;;;;;;0.50;0.50;;;;;;;8.04;61.40;101060.91;5126697;28;20024;-59
2023/05/29 02:57:55;;;;;;;0.40;0.40;;;;;;;8.11;61.50;101060.97;5126755;28;20019;-60
2023/05/29 03:00:20;;;;;;;0.40;0.40;;;;;;;8.13;61.51;101059.28;5126868;28;20047;-58
2023/05/29 03:02:46;;;;;;;0.40;0.40;;;;;;;8.12;61.46;101048.06;5126435;28;20076;-60
2023/05/29 03:05:12;;;;;;;0.40;0.40;;;;;;;8.24;61.44;101062.84;5108420;28;20030;-60
2023/05/29 03:07:37;;;;;;;0.40;0.40;;;;;;;8.35;61.66;101060.41;5126514;28;20027;-59
2023/05/29 03:10:03;;;;;;;0.40;0.40;;;;;;;8.62;62.11;101060.72;5126396;28;20076;-61
2023/05/29 03:12:29;;;;;;;0.40;0.40;;;;;;;9.04;62.61;101055.94;5126555;28;20057;-60
2023/05/29 03:14:56;;;;;;;0.40;0.40;;;;;;;9.54;63.10;101051.97;5126548;28;20011;-59
2023/05/29 03:17:21;;;;;;;0.40;0.40;;;;;;;10.17;62.58;101054.88;5126418;28;20024;-59
2023/05/29 03:19:47;;;;;;;0.40;0.40;;;;;;;10.73;61.02;101054.19;5126141;28;20072;-58
2023/05/29 03:22:12;;;;;;;0.40;0.40;;;;;;;11.16;61.01;101058.53;5126378;28;20064;-59
2023/05/29 03:24:38;;;;;;;0.40;0.40;;;;;;;11.51;60.81;101051.56;5126006;28;20046;-57
2023/05/29 03:27:04;;;;;;;0.40;0.40;;;;;;;11.85;60.82;101058.41;5126393;28;20031;-59
2023/05/29 03:29:32;;;;;;;0.40;0.40;;;;;;;12.24;60.27;101066.09;5126329;28;20228;-60
2023/05/29 03:31:57;;;;;;;0.30;0.30;;;;;;;12.55;59.92;101067.66;5126347;28;20554;-59
2023/05/29 03:34:22;;;;;;;0.30;0.30;;;;;;;12.91;59.09;101059.63;5126047;28;20024;-58
2023/05/29 03:36:49;;;;;;;0.30;0.30;;;;;;;13.31;58.88;101061.00;5126314;28;20125;-58
2023/05/29 03:39:14;;;;;;;0.30;0.30;;;;;;;13.58;57.23;101059.03;5107697;28;20047;-58
2023/05/29 03:41:39;;;;;;;0.30;0.30;;;;;;;13.77;56.93;101070.13;5125887;28;20024;-59
2023/05/29 03:44:05;;;;;;;0.40;0.40;;;;;;;13.94;55.96;101062.13;5125948;28;20023;-60
2023/05/29 03:46:31;;;;;;;0.30;0.30;;;;;;;14.13;55.37;101065.38;5125181;28;20028;-59
2023/05/29 03:48:56;;;;;;;0.30;0.30;;;;;;;14.07;52.49;101065.47;5125787;28;20604;-58
2023/05/29 03:51:22;;;;;;;0.30;0.30;;;;;;;14.15;53.66;101054.03;5125844;28;20031;-60
2023/05/29 03:53:47;;;;;;;0.30;0.30;;;;;;;14.33;52.21;101064.25;5125887;28;20026;-59
2023/05/29 03:56:13;;;;;;;0.30;0.30;;;;;;;14.30;51.97;101055.56;5125604;28;20016;-59
2023/05/29 03:58:38;;;;;;;1.75;1.48;;;;;;;14.25;50.06;101061.72;5125629;28;20035;-60
2023/05/29 04:01:04;;;;;;;1.52;1.45;;;;;;;14.32;51.46;101072.97;5125650;28;20023;-60
2023/05/29 04:03:30;;;;;;;0.30;0.30;;;;;;;14.42;49.60;101068.50;5125457;28;20053;-60
2023/05/29 04:05:56;;;;;;;0.30;0.30;;;;;;;14.55;51.07;101079.63;5125619;28;20043;-59
2023/05/29 04:08:21;;;;;;;0.30;0.30;;;;;;;14.92;51.37;101069.53;5125139;28;20030;-59
2023/05/29 04:10:47;;;;;;;0.30;0.30;;;;;;;15.49;52.20;101073.78;5125321;28;20045;-59
2023/05/29 04:13:12;;;;;;;0.30;0.30;;;;;;;16.26;52.71;101074.94;5125468;28;20026;-60
2023/05/29 04:15:37;;;;;;;0.30;0.30;;;;;;;16.96;51.78;101065.44;5125424;28;20020;-60
2023/05/29 04:18:03;;;;;;;0.30;0.30;;;;;;;17.24;49.48;101057.84;5125172;28;20063;-59
2023/05/29 04:20:28;;;;;;;0.30;0.30;;;;;;;17.38;48.63;101081.94;5125329;28;20047;-60
2023/05/29 04:22:54;;;;;;;0.30;0.30;;;;;;;17.37;48.32;101076.72;5124024;28;20379;-60
2023/05/29 04:25:19;;;;;;;0.30;0.30;;;;;;;17.51;47.42;101076.38;5124995;28;20096;-59
2023/05/29 04:27:48;;;;;;;0.20;0.20;;;;;;;17.63;47.07;101075.19;5125174;28;20083;-59
2023/05/29 04:30:15;;;;;;;0.30;0.30;;;;;;;17.77;46.49;101083.53;5125028;28;20081;-60
2023/05/29 04:32:40;;;;;;;0.30;0.30;;;;;;;17.74;44.05;101082.75;5124898;28;20104;-58
2023/05/29 04:35:06;;;;;;;0.30;0.30;;;;;;;17.59;45.45;101091.03;5125048;28;20382;-57
2023/05/29 04:37:37;;;;;;;3.53;2.83;;;;;;;17.70;44.83;101101.22;5124763;28;20089;-57
2023/05/29 04:40:07;;;;;;;0.20;0.20;;;;;;;17.74;44.21;101109.00;5124550;28;20031;-58
2023/05/29 04:42:33;;;;;;;0.60;0.60;;;;;;;17.91;44.21;101105.91;5125129;28;20043;-57
2023/05/29 04:45:00;;;;;;;0.20;0.20;;;;;;;18.06;43.39;101109.88;5124825;28;20032;-58
2023/05/29 04:47:26;;;;;;;0.20;0.20;;;;;;;17.86;42.59;101110.47;5124726;28;20501;-58
2023/05/29 04:49:51;;;;;;;0.30;0.30;;;;;;;17.75;42.93;101111.59;5124799;28;20019;-57
2023/05/29 04:52:17;;;;;;;0.20;0.20;;;;;;;17.83;42.83;101107.00;5124548;28;20027;-58
2023/05/29 04:54:42;;;;;;;0.30;0.30;;;;;;;17.80;43.15;101117.59;5123782;28;20047;-57
2023/05/29 04:57:08;;;;;;;0.30;0.30;;;;;;;17.95;43.30;101120.69;5124689;28;20083;-58
2023/05/29 04:59:34;;;;;;;0.20;0.20;;;;;;;17.99;42.18;101118.84;5124879;28;20032;-57
2023/05/29 05:02:00;;;;;;;0.22;0.22;;;;;;;18.00;41.02;101120.56;5124974;28;20019;-58
2023/05/29 05:04:26;;;;;;;0.30;0.30;;;;;;;17.92;41.20;101123.41;5106211;28;20028;-57
2023/05/29 05:06:51;;;;;;;0.30;0.30;;;;;;;17.73;40.70;101126.56;5124626;28;20102;-57
2023/05/29 05:09:17;;;;;;;0.30;0.30;;;;;;;17.77;40.83;101128.19;5124774;28;20419;-58
2023/05/29 05:11:43;;;;;;;0.30;0.30;;;;;;;18.05;40.40;101127.41;5124411;28;20027;-56
2023/05/29 05:14:08;;;;;;;0.30;0.30;;;;;;;18.03;39.22;101131.00;5124348;28;20015;-55
2023/05/29 05:16:34;;;;;;;0.30;0.30;;;;;;;17.42;39.10;101133.47;5124451;28;20016;-57
2023/05/29 05:18:59;;;;;;;1.15;1.10;;;;;;;16.81;39.34;101137.50;5124334;28;20551;-57
2023/05/29 05:21:24;;;;;;;0.20;0.20;;;;;;;16.48;39.58;101138.19;5124689;28;20471;-55
2023/05/29 05:23:50;;;;;;;1.38;1.27;;;;;;;16.10;39.78;101138.09;5124426;28;20495;-57
2023/05/29 05:26:15;;;;;;;0.30;0.30;;;;;;;15.70;39.82;101139.69;5124053;28;20020;-54
2023/05/29 05:28:41;;;;;;;0.30;0.30;;;;;;;15.45;40.50;101128.81;5124505;28;20048;-59
2023/05/29 05:31:07;;;;;;;0.40;0.40;;;;;;;15.28;40.57;101132.59;5124556;28;20109;-59
2023/05/29 05:33:32;;;;;;;0.30;0.30;;;;;;;15.06;40.70;101137.28;5124538;28;20023;-58
2023/05/29 05:35:58;;;;;;;0.30;0.30;;;;;;;14.93;40.99;101141.84;5124472;28;20526;-60
2023/05/29 05:38:23;;;;;;;0.30;0.30;;;;;;;14.79;41.26;101128.94;5124193;28;20027;-57
2023/05/29 05:40:49;;;;;;;0.30;0.30;;;;;;;14.73;41.78;101135.09;5124049;28;20028;-60
2023/05/29 05:43:14;;;;;;;0.30;0.30;;;;;;;14.79;41.53;101132.44;5124319;28;20023;-59
2023/05/29 05:45:42;;;;;;;0.30;0.30;;;;;;;14.90;41.70;101127.06;5124057;28;20071;-58
2023/05/29 05:48:08;;;;;;;0.30;0.30;;;;;;;15.11;41.61;101130.25;5124101;28;20028;-58
2023/05/29 05:50:33;;;;;;;0.30;0.30;;;;;;;15.31;41.66;101123.81;5124175;28;20083;-57
2023/05/29 05:52:59;;;;;;;0.40;0.40;;;;;;;15.69;41.20;101122.28;5124081;28;20027;-59
2023/05/29 05:55:26;;;;;;;1.05;1.05;;;;;;;15.89;40.32;101134.16;5123732;28;20015;-59
2023/05/29 05:57:51;;;;;;;0.30;0.30;;;;;;;15.95;40.69;101130.53;5124098;28;20016;-56
2023/05/29 06:00:17;;;;;;;0.30;0.30;;;;;;;16.20;40.02;101127.44;5123945;28;20024;-58
2023/05/29 06:02:44;;;;;;;0.30;0.30;;;;;;;16.40;39.77;101129.66;5123942;28;20042;-58
2023/05/29 06:05:11;;;;;;;0.30;0.30;;;;;;;16.59;39.33;101142.38;5123964;28;20035;-57
2023/05/29 06:07:37;;;;;;;0.30;0.30;;;;;;;16.79;39.18;101141.91;5123960;28;20056;-58
2023/05/29 06:10:03;;;;;;;0.52;0.52;;;;;;;17.01;39.20;101157.19;5124232;28;20019;-56
2023/05/29 06:12:29;;;;;;;0.30;0.30;;;;;;;17.18;39.05;101148.06;5128043;28;20027;-55
2023/05/29 06:14:55;;;;;;;0.30;0.30;;;;;;;17.44;38.36;101139.50;5127724;28;20479;-59
2023/05/29 06:17:21;;;;;;;0.30;0.30;;;;;;;17.57;39.37;101155.81;5127741;28;20083;-59
2023/05/29 06:19:47;;;;;;;0.73;0.73;;;;;;;17.57;39.07;101145.31;5127742;28;20078;-57
2023/05/29 06:22:13;;;;;;;0.20;0.20;;;;;;;17.74;38.68;101149.28;5127685;28;20024;-56
2023/05/29 06:24:39;;;;;;;0.65;0.65;;;;;;;18.03;38.66;101147.63;5127241;28;20156;-59
2023/05/29 06:27:04;;;;;;;0.30;0.30;;;;;;;18.34;37.43;101145.91;5127747;28;20024;-58
2023/05/29 06:29:30;;;;;;;0.20;0.20;;;;;;;18.57;37.86;101141.72;5127689;28;20035;-58
2023/05/29 06:31:55;;;;;;;0.30;0.30;;;;;;;18.67;37.34;101150.19;5127683;28;20076;-58
2023/05/29 06:34:21;;;;;;;0.30;0.30;;;;;;;18.82;37.09;101149.72;5127609;28;20110;-58
2023/05/29 06:36:46;;;;;;;0.30;0.30;;;;;;;19.05;37.10;101153.41;5127434;28;20011;-58
2023/05/29 06:39:13;;;;;;;0.30;0.30;;;;;;;19.11;36.14;101168.16;5127259;28;20023;-57
2023/05/29 06:41:39;;;;;;;0.20;0.20;;;;;;;18.89;35.99;101163.56;5127131;28;20027;-58
2023/05/29 06:44:04;;;;;;;0.30;0.30;;;;;;;18.81;36.32;101158.53;5127274;28;20446;-56
2023/05/29 06:46:30;;;;;;;0.30;0.30;;;;;;;19.11;35.33;101168.16;5127216;28;20019;-56
2023/05/29 06:48:55;;;;;;;0.28;0.28;;;;;;;19.16;35.40;101166.25;5127269;28;20032;-56
2023/05/29 06:51:21;;;;;;;0.30;0.30;;;;;;;19.26;34.86;101164.16;5127177;28;20089;-58
2023/05/29 06:53:46;;;;;;;0.30;0.30;;;;;;;19.16;34.76;101168.88;5127065;28;20050;-57
2023/05/29 06:56:12;;;;;;;0.20;0.20;;;;;;;19.16;35.09;101175.91;5126707;28;20020;-58
2023/05/29 06:58:37;;;;;;;0.20;0.20;;;;;;;19.27;34.42;101173.78;5127083;28;20045;-58
2023/05/29 07:01:03;;;;;;;0.20;0.20;;;;;;;19.48;35.23;101181.00;5126969;28;20033;-57
2023/05/29 07:03:29;;;;;;;3.35;1.27;;;;;;;19.82;35.48;101180.69;5126688;28;20079;-57
2023/05/29 07:05:54;;;;;;;0.20;0.20;;;;;;;20.13;35.71;101170.00;5126776;28;20015;-58
2023/05/29 07:08:20;;;;;;;0.20;0.20;;;;;;;20.59;35.50;101180.59;5126678;28;20099;-56
2023/05/29 07:10:45;;;;;;;0.20;0.20;;;;;;;20.99;35.12;101177.38;5126562;28;20411;-59
2023/05/29 07:13:16;;;;;;;0.20;0.20;;;;;;;21.19;34.60;101184.47;5126888;28;20054;-56
2023/05/29 07:15:42;;;;;;;0.30;0.30;;;;;;;21.48;33.85;101182.41;5126662;28;20012;-58
2023/05/29 07:18:07;;;;;;;0.20;0.20;;;;;;;21.69;30.88;101174.50;5126556;28;20053;-56
2023/05/29 07:20:32;;;;;;;0.20;0.20;;;;;;;21.89;31.86;101178.06;5126089;28;20059;-58
2023/05/29 07:22:58;;;;;;;0.20;0.20;;;;;;;22.13;30.04;101180.53;5125352;28;20039;-57
2023/05/29 07:25:23;;;;;;;0.20;0.20;;;;;;;22.04;30.31;101180.03;5126158;28;20088;-58
2023/05/29 07:27:49;;;;;;;0.20;0.20;;;;;;;22.17;31.14;101195.38;5126443;28;20020;-60
2023/05/29 07:30:15;;;;;;;0.20;0.20;;;;;;;22.58;30.10;101182.94;5126426;28;20020;-57
2023/05/29 07:32:40;;;;;;;0.20;0.20;;;;;;;23.03;29.97;101186.13;5126311;28;20031;-57
2023/05/29 07:35:06;;;;;;;0.20;0.20;;;;;;;23.48;30.58;101191.03;5126395;28;20016;-57
2023/05/29 07:37:31;;;;;;;0.20;0.20;;;;;;;23.60;30.63;101187.75;5126110;28;20482;-59
2023/05/29 07:39:57;;;;;;;0.20;0.20;;;;;;;23.89;30.71;101184.53;5126015;28;20077;-57
2023/05/29 07:42:22;;;;;;;0.10;0.10;;;;;;;24.31;30.93;101168.22;5125964;28;20020;-54
2023/05/29 07:44:48;;;;;;;0.20;0.20;;;;;;;24.74;28.62;101170.28;5107604;28;20032;-57
2023/05/29 07:47:13;;;;;;;0.10;0.10;;;;;;;25.50;28.64;101179.22;5126131;28;20486;-58
2023/05/29 07:49:39;;;;;;;0.20;0.20;;;;;;;26.14;27.79;101174.53;5125888;28;20511;-57
2023/05/29 07:52:05;;;;;;;0.20;0.20;;;;;;;26.50;27.01;101172.34;5125998;28;20029;-58
2023/05/29 07:54:32;;;;;;;0.10;0.10;;;;;;;26.92;26.46;101177.63;5125767;28;20050;-59
2023/05/29 07:56:59;;;;;;;0.20;0.20;;;;;;;27.25;27.33;101178.19;5125979;28;20043;-58
2023/05/29 07:59:25;;;;;;;0.17;0.17;;;;;;;27.59;26.52;101175.00;5125763;28;20046;-58
2023/05/29 08:01:50;;;;;;;0.10;0.10;;;;;;;27.88;24.58;101182.84;5125638;28;20039;-57
2023/05/29 08:04:16;;;;;;;0.50;0.50;;;;;;;27.74;23.81;101191.81;5107543;28;20016;-57
2023/05/29 08:06:42;;;;;;;0.30;0.30;;;;;;;27.53;20.51;101180.78;5125649;28;20016;-58
2023/05/29 08:09:07;;;;;;;0.20;0.20;;;;;;;27.15;20.12;101183.28;5125464;28;20050;-58
2023/05/29 08:11:33;;;;;;;0.10;0.10;;;;;;;26.83;22.18;101184.44;5125106;28;20019;-56
2023/05/29 08:13:59;;;;;;;0.10;0.10;;;;;;;27.24;22.18;101175.63;5125334;28;20031;-55
2023/05/29 08:16:24;;;;;;;0.20;0.20;;;;;;;27.54;21.22;101174.50;5125334;28;20015;-58
2023/05/29 08:18:50;;;;;;;0.10;0.10;;;;;;;27.10;20.73;101172.94;5125255;28;20043;-54
2023/05/29 08:21:16;;;;;;;0.10;0.10;;;;;;;27.25;21.64;101167.53;5125491;28;20554;-57
2023/05/29 08:23:41;;;;;;;0.10;0.10;;;;;;;27.47;21.81;101166.94;5125084;28;20020;-56
2023/05/29 08:26:07;;;;;;;0.15;0.15;;;;;;;27.95;21.75;101161.94;5124933;28;20031;-55
2023/05/29 08:28:32;;;;;;;0.20;0.20;;;;;;;28.35;21.69;101168.06;5125186;28;20489;-55
2023/05/29 08:30:58;;;;;;;0.10;0.10;;;;;;;28.54;21.42;101164.91;5125196;28;20028;-56
2023/05/29 08:33:23;;;;;;;0.10;0.10;;;;;;;28.61;22.01;101166.16;5124654;28;20118;-57
2023/05/29 08:35:48;;;;;;;0.10;0.10;;;;;;;28.78;21.33;101170.28;5125321;28;20111;-57
2023/05/29 08:38:14;;;;;;;0.10;0.10;;;;;;;28.82;20.75;101169.06;5125080;28;20416;-58
2023/05/29 08:40:40;;;;;;;0.10;0.10;;;;;;;28.80;21.34;101165.63;5124858;28;20055;-58
2023/05/29 08:43:16;;;;;;;0.22;0.22;;;;;;;28.62;20.85;101164.34;5125044;28;20024;-58
2023/05/29 08:45:45;;;;;;;0.10;0.10;;;;;;;28.66;20.41;101168.50;5124777;28;20023;-58
2023/05/29 08:48:12;;;;;;;0.10;0.10;;;;;;;28.77;21.22;101165.03;5125008;28;20043;-55
2023/05/29 08:50:46;;;;;;;0.10;0.10;;;;;;;28.89;21.91;101169.47;5124761;28;20094;-58
2023/05/29 08:53:13;;;;;;;0.10;0.10;;;;;;;29.20;21.67;101177.03;5124592;28;20019;-57
2023/05/29 08:55:38;;;;;;;0.10;0.10;;;;;;;29.13;22.13;101173.97;5124531;28;20020;-58
2023/05/29 08:58:05;;;;;;;0.10;0.10;;;;;;;29.37;21.61;101175.72;5125008;28;20063;-58
2023/05/29 09:00:31;;;;;;;0.10;0.10;;;;;;;29.58;21.78;101180.41;5124649;28;20078;-58
2023/05/29 09:02:59;;;;;;;0.10;0.10;;;;;;;29.53;20.99;101174.53;5124724;28;20309;-57
2023/05/29 09:05:27;;;;;;;0.10;0.10;;;;;;;29.64;21.23;101176.41;5124395;28;20053;-59
2023/05/29 09:07:53;;;;;;;0.38;0.38;;;;;;;29.57;20.41;101173.31;5124624;28;20020;-60
2023/05/29 09:10:20;;;;;;;0.10;0.10;;;;;;;29.24;20.99;101177.63;5124392;28;20046;-55
2023/05/29 09:12:46;;;;;;;0.10;0.10;;;;;;;28.83;21.14;101176.09;5124786;28;20247;-58
2023/05/29 09:15:20;;;;;;;0.10;0.10;;;;;;;28.44;21.59;101176.28;5124496;28;20046;-58
2023/05/29 09:17:53;;;;;;;0.10;0.10;;;;;;;28.27;22.26;101177.47;5124606;28;20027;-59
2023/05/29 09:20:23;;;;;;;0.10;0.10;;;;;;;28.44;22.62;101184.28;5124343;28;20441;-57
2023/05/29 09:23:03;;;;;;;0.10;0.10;;;;;;;28.51;21.93;101192.69;5124432;28;20027;-57
2023/05/29 09:25:31;;;;;;;0.10;0.10;;;;;;;28.31;21.20;101192.31;5124316;28;20020;-58
2023/05/29 09:28:05;;;;;;;0.30;0.30;;;;;;;28.40;21.49;101196.16;5124469;28;20055;-56
2023/05/29 09:30:35;;;;;;;0.10;0.10;;;;;;;28.67;22.23;101195.09;5124488;28;20023;-55
2023/05/29 09:33:02;;;;;;;0.55;0.55;;;;;;;29.09;21.67;101193.84;5124677;28;20031;-58
2023/05/29 09:35:42;;;;;;;0.20;0.20;;;;;;;29.43;22.05;101191.31;5124562;28;20028;-55
2023/05/29 09:38:09;;;;;;;0.10;0.10;;;;;;;29.47;21.77;101196.41;5124306;28;20026;-58
2023/05/29 09:40:42;;;;;;;0.10;0.10;;;;;;;29.48;21.93;101193.63;5123965;28;20087;-56
2023/05/29 09:43:17;;;;;;;0.10;0.10;;;;;;;29.27;22.00;101191.63;5124419;28;20047;-57
2023/05/29 09:45:50;;;;;;;0.10;0.10;;;;;;;29.30;22.18;101195.88;5126458;28;20459;-55
2023/05/29 09:48:22;;;;;;;0.35;0.35;;;;;;;29.19;20.63;101197.56;5128322;28;20110;-57
2023/05/29 09:50:48;;;;;;;0.30;0.30;;;;;;;28.92;19.65;101195.94;5128189;28;20068;-57
2023/05/29 09:53:24;;;;;;;0.10;0.10;;;;;;;28.39;20.93;101194.44;5128078;28;20043;-58
2023/05/29 09:55:50;;;;;;;0.10;0.10;;;;;;;28.15;19.60;101194.38;5128012;28;20023;-57
2023/05/29 09:58:19;;;;;;;0.10;0.10;;;;;;;27.40;20.57;101200.28;5128225;28;20027;-57
2023/05/29 10:00:47;;;;;;;0.10;0.10;;;;;;;26.91;20.68;101191.91;5127950;28;20020;-56
2023/05/29 10:03:12;;;;;;;0.10;0.10;;;;;;;26.42;20.88;101196.78;5127918;28;20109;-58
2023/05/29 10:05:41;;;;;;;0.20;0.20;;;;;;;26.17;21.53;101195.63;5128317;28;20024;-59
2023/05/29 10:08:19;;;;;;;0.10;0.10;;;;;;;25.85;21.83;101188.72;5128056;28;20066;-58
2023/05/29 10:10:53;;;;;;;0.10;0.10;;;;;;;26.08;22.64;101182.91;5127747;28;20020;-57
2023/05/29 10:13:21;;;;;;;0.10;0.10;;;;;;;26.56;21.66;101181.75;5128094;28;20020;-59
2023/05/29 10:15:52;;;;;;;0.10;0.10;;;;;;;26.63;21.90;101184.88;5127723;28;20450;-57
2023/05/29 10:18:37;;;;;;;0.10;0.10;;;;;;;26.77;22.17;101192.81;5127839;28;20029;-58
2023/05/29 10:21:03;;;;;;;4.55;2.20;;;;;;;27.20;21.64;101188.31;5127744;28;20068;-58
2023/05/29 10:23:31;;;;;;;0.10;0.10;;;;;;;27.93;21.35;101185.19;5127617;28;20479;-58
2023/05/29 10:26:05;;;;;;;0.10;0.10;;;;;;;28.35;19.70;101187.63;5127534;28;20038;-59
2023/05/29 10:28:31;;;;;;;0.10;0.10;;;;;;;28.76;19.84;101188.22;5127898;28;20102;-57
2023/05/29 10:31:10;;;;;;;0.10;0.10;;;;;;;28.40;19.69;101181.94;5127561;28;20508;-58
2023/05/29 10:33:35;;;;;;;0.20;0.20;;;;;;;27.95;19.20;101184.13;5127330;28;20082;-58
2023/05/29 10:36:10;;;;;;;0.10;0.10;;;;;;;27.53;20.02;101192.31;5127500;28;20031;-58
2023/05/29 10:38:36;;;;;;;0.10;0.10;;;;;;;27.66;20.61;101188.78;5127518;28;20024;-58
2023/05/29 10:41:26;;;;;;;0.20;0.20;;;;;;;27.88;20.60;101177.50;5126707;28;20076;-56
2023/05/29 10:43:55;;;;;;;0.20;0.20;;;;;;;27.91;19.83;101169.28;5109020;28;20022;-58
2023/05/29 10:46:20;;;;;;;0.10;0.10;;;;;;;28.17;20.28;101174.59;5127205;28;20518;-57
2023/05/29 10:48:49;;;;;;;0.10;0.10;;;;;;;28.15;20.25;101175.69;5127241;28;20019;-58
2023/05/29 10:51:25;;;;;;;0.10;0.10;;;;;;;27.90;19.87;101183.59;5127185;28;20024;-56
2023/05/29 10:53:51;;;;;;;1.02;1.02;;;;;;;27.44;20.35;101187.59;5127099;28;20069;-58
2023/05/29 10:56:22;;;;;;;0.10;0.10;;;;;;;27.13;20.84;101174.53;5126622;28;20020;-56
2023/05/29 10:58:53;;;;;;;0.10;0.10;;;;;;;26.76;20.83;101182.28;5127253;28;20034;-55
2023/05/29 11:01:22;;;;;;;0.17;0.17;;;;;;;26.18;21.10;101173.38;5127086;28;20069;-58
2023/05/29 11:03:48;;;;;;;0.10;0.10;;;;;;;25.48;20.25;101170.47;5126870;28;20035;-58
2023/05/29 11:06:21;;;;;;;0.38;0.38;;;;;;;24.74;21.05;101171.16;5127017;28;20015;-57
2023/05/29 11:08:52;;;;;;;0.10;0.10;;;;;;;24.11;21.27;101167.47;5126847;28;20015;-58
2023/05/29 11:11:27;;;;;;;0.20;0.20;;;;;;;23.57;22.18;101174.66;5126595;28;20024;-57
2023/05/29 11:13:53;;;;;;;0.10;0.10;;;;;;;23.36;22.83;101173.94;5126854;28;20424;-55
2023/05/29 11:16:25;;;;;;;0.10;0.10;;;;;;;23.13;23.00;101176.78;5126800;28;20028;-58
2023/05/29 11:18:52;;;;;;;0.20;0.20;;;;;;;22.88;23.38;101191.25;5126658;28;21043;-59
2023/05/29 11:21:39;;;;;;;0.20;0.20;;;;;;;22.63;23.90;101188.91;5126732;28;20023;-57
2023/05/29 11:24:06;;;;;;;0.20;0.20;;;;;;;22.25;24.20;101181.78;5126607;28;20030;-59
2023/05/29 11:26:32;;;;;;;0.20;0.20;;;;;;;21.92;24.77;101180.56;5125941;28;20087;-56